createdAt,value
2023-05-18T00:01:14.636Z,45.60
2023-05-18T00:03:44.052Z,45.50
2023-05-18T00:06:12.141Z,45.50
2023-05-18T00:08:40.028Z,44.90
2023-05-18T00:11:08.050Z,45.00
2023-05-18T00:13:35.943Z,45.60
2023-05-18T00:16:03.897Z,47.20
2023-05-18T00:18:31.820Z,47.40
2023-05-18T00:21:02.028Z,47.10
2023-05-18T00:23:32.792Z,48.20
2023-05-18T00:26:01.803Z,48.40
2023-05-18T00:28:30.555Z,47.70
2023-05-18T00:31:00.468Z,47.60
2023-05-18T00:33:28.444Z,47.50
2023-05-18T00:35:57.328Z,47.70
2023-05-18T00:38:26.631Z,48.00
2023-05-18T00:40:54.597Z,47.90
2023-05-18T00:43:22.572Z,48.70
2023-05-18T00:45:50.535Z,48.40
2023-05-18T00:48:18.594Z,49.00
2023-05-18T00:50:47.299Z,49.00
2023-05-18T00:53:15.468Z,49.30
2023-05-18T00:55:44.731Z,50.40
2023-05-18T00:58:12.710Z,50.60
2023-05-18T01:00:41.216Z,50.80
2023-05-18T01:03:12.036Z,50.30
2023-05-18T01:05:40.171Z,50.20
2023-05-18T01:08:08.668Z,49.70
2023-05-18T01:10:39.780Z,49.60
2023-05-18T01:13:18.109Z,49.60
2023-05-18T01:15:52.717Z,49.10
2023-05-18T01:18:25.019Z,49.00
2023-05-18T01:21:00.952Z,49.00
2023-05-18T01:23:52.366Z,49.10
2023-05-18T01:26:29.872Z,49.00
2023-05-18T01:29:00.102Z,48.60
2023-05-18T01:31:29.080Z,48.30
2023-05-18T01:33:57.032Z,48.00
2023-05-18T01:36:24.999Z,48.90
2023-05-18T01:38:53.707Z,48.90
2023-05-18T01:41:24.324Z,48.80
2023-05-18T01:44:01.382Z,48.90
2023-05-18T01:46:36.993Z,49.20
2023-05-18T01:49:14.678Z,50.20
2023-05-18T01:51:46.261Z,49.40
2023-05-18T01:54:17.608Z,49.30
2023-05-18T01:56:49.779Z,48.50
2023-05-18T01:59:18.892Z,49.70
2023-05-18T02:01:46.861Z,49.80
2023-05-18T02:04:14.835Z,50.80
2023-05-18T02:06:42.935Z,51.10
2023-05-18T02:09:10.859Z,52.60
2023-05-18T02:11:38.745Z,51.70
2023-05-18T02:14:08.032Z,52.10
2023-05-18T02:16:36.053Z,52.70
2023-05-18T02:19:04.704Z,54.10
2023-05-18T02:21:34.688Z,52.70
2023-05-18T02:24:02.605Z,53.20
2023-05-18T02:26:31.047Z,54.50
2023-05-18T02:28:58.949Z,54.40
2023-05-18T02:31:29.564Z,54.10
2023-05-18T02:33:58.078Z,55.20
2023-05-18T02:36:26.580Z,54.70
2023-05-18T02:38:54.524Z,54.70
2023-05-18T02:41:22.848Z,54.50
2023-05-18T02:43:50.794Z,57.00
2023-05-18T02:46:18.769Z,57.70
2023-05-18T02:48:48.061Z,58.20
2023-05-18T02:51:15.979Z,57.50
2023-05-18T02:53:44.151Z,56.70
2023-05-18T02:56:12.370Z,57.40
2023-05-18T02:58:40.571Z,60.00
2023-05-18T03:01:08.699Z,59.20
2023-05-18T03:03:36.931Z,59.20
2023-05-18T03:06:08.207Z,58.50
2023-05-18T03:08:37.314Z,57.10
2023-05-18T03:11:05.846Z,58.30
2023-05-18T03:13:33.750Z,58.70
2023-05-18T03:16:01.706Z,58.50
2023-05-18T03:18:29.655Z,58.00
2023-05-18T03:21:02.065Z,58.10
2023-05-18T03:23:31.675Z,57.30
2023-05-18T03:25:59.607Z,57.40
2023-05-18T03:28:27.530Z,57.30
2023-05-18T03:30:55.680Z,58.40
2023-05-18T03:33:23.604Z,60.80
2023-05-18T03:35:52.470Z,59.30
2023-05-18T03:38:20.674Z,59.70
2023-05-18T03:40:50.132Z,60.10
2023-05-18T03:43:18.124Z,60.70
2023-05-18T03:45:46.100Z,60.00
2023-05-18T03:48:14.150Z,59.50
2023-05-18T03:50:42.131Z,60.00
2023-05-18T03:53:10.508Z,59.70
2023-05-18T03:55:38.388Z,59.50
2023-05-18T03:58:07.627Z,59.80
2023-05-18T04:00:35.673Z,59.30
2023-05-18T04:03:04.739Z,59.70
2023-05-18T04:05:33.435Z,58.70
2023-05-18T04:08:01.443Z,58.30
2023-05-18T04:10:29.390Z,58.30
2023-05-18T04:12:57.477Z,58.20
2023-05-18T04:15:26.888Z,57.80
2023-05-18T04:17:55.010Z,58.40
2023-05-18T04:20:23.171Z,58.50
2023-05-18T04:22:51.283Z,57.50
2023-05-18T04:25:19.227Z,57.00
2023-05-18T04:27:49.892Z,54.50
2023-05-18T04:30:22.539Z,55.40
2023-05-18T04:32:52.389Z,53.50
2023-05-18T04:35:20.321Z,53.20
2023-05-18T04:37:48.253Z,51.80
2023-05-18T04:40:17.419Z,51.30
2023-05-18T04:42:47.725Z,50.90
2023-05-18T04:45:17.902Z,50.80
2023-05-18T04:47:47.186Z,49.90
2023-05-18T04:50:20.853Z,49.80
2023-05-18T04:52:49.734Z,50.00
2023-05-18T04:55:23.142Z,48.00
2023-05-18T04:57:53.969Z,47.40
2023-05-18T05:00:22.347Z,46.50
2023-05-18T05:02:50.308Z,47.80
2023-05-18T05:05:19.814Z,45.80
2023-05-18T05:07:47.856Z,47.40
2023-05-18T05:10:15.754Z,46.70
2023-05-18T05:12:43.689Z,45.70
2023-05-18T05:15:11.660Z,46.70
2023-05-18T05:17:39.795Z,45.00
2023-05-18T05:20:08.909Z,46.90
2023-05-18T05:22:38.226Z,47.50
2023-05-18T05:25:07.221Z,45.00
2023-05-18T05:27:35.206Z,45.30
2023-05-18T05:30:03.235Z,45.90
2023-05-18T05:32:31.220Z,43.00
2023-05-18T05:34:59.161Z,44.30
2023-05-18T05:37:27.062Z,41.80
2023-05-18T05:39:56.651Z,42.20
2023-05-18T05:42:25.602Z,39.80
2023-05-18T05:44:53.595Z,38.50
2023-05-18T05:47:21.621Z,37.30
2023-05-18T05:49:49.588Z,37.90
2023-05-18T05:52:17.479Z,36.90
2023-05-18T05:54:45.488Z,36.00
2023-05-18T05:57:14.839Z,33.70
2023-05-18T05:59:42.776Z,36.80
2023-05-18T06:02:11.168Z,36.10
2023-05-18T06:04:39.290Z,37.40
2023-05-18T06:07:07.425Z,35.40
2023-05-18T06:09:35.399Z,35.50
2023-05-18T06:12:03.427Z,34.90
2023-05-18T06:14:33.059Z,36.70
2023-05-18T06:17:00.997Z,34.70
2023-05-18T06:19:29.229Z,35.20
2023-05-18T06:21:57.231Z,33.90
2023-05-18T06:24:25.293Z,34.50
2023-05-18T06:26:53.197Z,35.10
2023-05-18T06:29:21.726Z,32.60
2023-05-18T06:31:51.218Z,31.70
2023-05-18T06:34:19.126Z,33.00
2023-05-18T06:36:47.565Z,31.30
2023-05-18T06:39:15.472Z,33.20
2023-05-18T06:41:45.049Z,33.90
2023-05-18T06:44:13.094Z,31.80
2023-05-18T06:46:41.561Z,32.00
2023-05-18T06:49:11.090Z,33.70
2023-05-18T06:51:39.175Z,33.00
2023-05-18T06:54:07.364Z,32.00
2023-05-18T06:56:35.345Z,33.70
2023-05-18T06:59:03.501Z,31.20
2023-05-18T07:01:31.508Z,31.60
2023-05-18T07:03:59.533Z,35.50
2023-05-18T07:06:29.175Z,33.80
2023-05-18T07:08:57.644Z,33.70
2023-05-18T07:11:28.086Z,32.00
2023-05-18T07:13:57.389Z,34.20
2023-05-18T07:16:27.063Z,36.10
2023-05-18T07:18:55.175Z,32.20
2023-05-18T07:21:23.112Z,34.00
2023-05-18T07:23:53.393Z,34.20
2023-05-18T07:26:22.310Z,34.20
2023-05-18T07:28:51.358Z,33.20
2023-05-18T07:31:21.686Z,33.60
2023-05-18T07:33:49.910Z,33.90
2023-05-18T07:36:17.958Z,33.50
2023-05-18T07:38:45.958Z,36.90
2023-05-18T07:41:15.253Z,34.50
2023-05-18T07:43:43.180Z,34.50
2023-05-18T07:46:11.115Z,32.90
2023-05-18T07:48:40.734Z,36.30
2023-05-18T07:51:09.148Z,31.80
2023-05-18T07:53:37.928Z,34.40
2023-05-18T07:56:07.507Z,32.10
2023-05-18T07:58:37.188Z,32.10
2023-05-18T08:01:05.308Z,34.20
2023-05-18T08:03:33.293Z,32.80
2023-05-18T08:06:01.389Z,33.30
2023-05-18T08:08:29.883Z,34.80
2023-05-18T08:10:58.669Z,31.20
2023-05-18T08:13:26.678Z,32.80
2023-05-18T08:16:10.511Z,29.60
2023-05-18T08:18:40.368Z,27.90
2023-05-18T08:21:09.941Z,29.00
2023-05-18T08:23:38.722Z,28.70
2023-05-18T08:26:08.385Z,28.30
2023-05-18T08:28:36.602Z,31.30
2023-05-18T08:31:06.249Z,29.60
2023-05-18T08:33:34.309Z,30.50
2023-05-18T08:36:02.324Z,29.70
2023-05-18T08:38:30.307Z,30.80
2023-05-18T08:41:05.211Z,29.90
2023-05-18T08:43:36.360Z,29.60
2023-05-18T08:46:14.551Z,29.10
2023-05-18T08:48:45.629Z,31.30
2023-05-18T08:51:15.135Z,28.90
2023-05-18T08:53:44.876Z,29.50
2023-05-18T08:56:13.637Z,27.70
2023-05-18T08:58:46.017Z,28.10
2023-05-18T09:01:16.002Z,28.40
2023-05-18T09:03:45.255Z,31.30
2023-05-18T09:06:13.366Z,29.70
2023-05-18T09:08:41.936Z,28.70
2023-05-18T09:11:10.136Z,27.70
2023-05-18T09:13:39.148Z,31.70
2023-05-18T09:16:08.177Z,27.90
2023-05-18T09:18:37.801Z,27.90
2023-05-18T09:21:06.250Z,28.10
2023-05-18T09:23:34.809Z,27.50
2023-05-18T09:26:04.821Z,27.60
2023-05-18T09:28:36.581Z,27.80
2023-05-18T09:31:05.358Z,28.80
2023-05-18T09:33:36.555Z,30.90
2023-05-18T09:36:07.913Z,27.10
2023-05-18T09:38:38.725Z,27.70
2023-05-18T09:41:11.069Z,26.40
2023-05-18T09:43:39.136Z,27.40
2023-05-18T09:46:08.298Z,28.90
2023-05-18T09:48:37.754Z,27.90
2023-05-18T09:51:07.698Z,27.70
2023-05-18T09:53:37.379Z,25.30
2023-05-18T09:56:09.452Z,25.50
2023-05-18T09:58:37.451Z,27.40
2023-05-18T10:01:05.651Z,28.40
2023-05-18T10:03:36.912Z,30.10
2023-05-18T10:06:08.394Z,29.00
2023-05-18T10:08:37.764Z,27.20
2023-05-18T10:11:06.513Z,26.60
2023-05-18T10:13:35.790Z,27.80
2023-05-18T10:16:05.354Z,26.80
2023-05-18T10:18:36.362Z,26.90
2023-05-18T10:21:08.120Z,27.10
2023-05-18T10:23:37.928Z,29.10
2023-05-18T10:26:07.891Z,26.70
2023-05-18T10:28:42.239Z,24.20
2023-05-18T10:31:10.744Z,24.80
2023-05-18T10:33:39.430Z,27.80
2023-05-18T10:36:11.280Z,27.10
2023-05-18T10:38:40.649Z,26.10
2023-05-18T10:41:10.905Z,26.60
2023-05-18T10:43:39.074Z,27.20
2023-05-18T10:46:08.665Z,26.20
2023-05-18T10:48:39.996Z,26.40
2023-05-18T10:51:10.102Z,25.80
2023-05-18T10:53:39.067Z,26.20
2023-05-18T10:56:07.926Z,26.20
2023-05-18T10:58:37.954Z,26.40
2023-05-18T11:01:10.240Z,27.40
2023-05-18T11:03:40.338Z,27.20
2023-05-18T11:06:11.514Z,26.00
2023-05-18T11:08:50.014Z,25.20
2023-05-18T11:11:19.890Z,27.10
2023-05-18T11:13:50.495Z,24.20
2023-05-18T11:16:18.981Z,24.70
2023-05-18T11:18:49.430Z,25.70
2023-05-18T11:21:31.304Z,22.80
2023-05-18T11:24:23.001Z,25.10
2023-05-18T11:26:52.726Z,23.10
2023-05-18T11:29:23.349Z,24.30
2023-05-18T11:31:53.714Z,24.40
2023-05-18T11:34:44.634Z,25.40
2023-05-18T11:37:15.492Z,23.10
2023-05-18T11:39:55.455Z,25.60
2023-05-18T11:42:34.865Z,23.80
2023-05-18T11:45:08.093Z,23.30
2023-05-18T11:47:37.982Z,23.10
2023-05-18T11:50:08.888Z,23.00
2023-05-18T11:52:48.400Z,21.90
2023-05-18T11:55:17.502Z,22.30
2023-05-18T11:57:46.231Z,21.20
2023-05-18T12:00:15.790Z,20.60
2023-05-18T12:02:45.792Z,20.40
2023-05-18T12:05:14.895Z,22.60
2023-05-18T12:07:44.835Z,21.90
2023-05-18T12:10:16.208Z,21.60
2023-05-18T12:12:44.943Z,19.60
2023-05-18T12:15:16.569Z,23.60
2023-05-18T12:17:46.313Z,24.00
2023-05-18T12:20:15.547Z,23.00
2023-05-18T12:22:45.426Z,22.70
2023-05-18T12:25:14.899Z,22.00
2023-05-18T12:27:44.653Z,22.70
2023-05-18T12:30:13.935Z,22.20
2023-05-18T12:32:46.239Z,23.50
2023-05-18T12:35:14.298Z,24.00
2023-05-18T12:37:46.228Z,22.20
2023-05-18T12:40:17.820Z,19.90
2023-05-18T12:42:55.543Z,20.80
2023-05-18T12:45:24.993Z,23.50
2023-05-18T12:47:55.326Z,19.20
2023-05-18T12:50:24.950Z,21.00
2023-05-18T12:52:53.289Z,22.20
2023-05-18T12:55:25.059Z,22.60
2023-05-18T12:58:03.871Z,20.70
2023-05-18T13:00:35.463Z,21.40
2023-05-18T13:03:07.316Z,20.70
2023-05-18T13:05:35.715Z,20.70
2023-05-18T13:08:03.669Z,16.50
2023-05-18T13:10:33.892Z,22.00
2023-05-18T13:13:04.145Z,18.10
2023-05-18T13:15:35.828Z,20.70
2023-05-18T13:18:05.641Z,18.80
2023-05-18T13:20:36.842Z,19.20
2023-05-18T13:23:06.231Z,20.00
2023-05-18T13:25:35.570Z,19.90
2023-05-18T13:28:03.891Z,20.90
2023-05-18T13:30:32.229Z,24.00
2023-05-18T13:33:01.111Z,22.10
2023-05-18T13:35:29.598Z,21.70
2023-05-18T13:37:57.956Z,21.50
2023-05-18T13:40:25.960Z,21.00
2023-05-18T13:42:55.321Z,19.60
2023-05-18T13:45:23.518Z,20.70
2023-05-18T13:47:52.159Z,20.60
2023-05-18T13:50:22.812Z,22.00
2023-05-18T13:52:50.872Z,21.40
2023-05-18T13:55:19.046Z,20.30
2023-05-18T13:57:47.403Z,20.10
2023-05-18T14:00:17.629Z,21.80
2023-05-18T14:02:46.217Z,20.70
2023-05-18T14:05:15.428Z,19.50
2023-05-18T14:07:44.139Z,20.70
2023-05-18T14:10:13.773Z,21.40
2023-05-18T14:12:43.220Z,21.30
2023-05-18T14:15:13.677Z,21.50
2023-05-18T14:17:43.705Z,21.70
2023-05-18T14:20:13.028Z,26.00
2023-05-18T14:22:41.376Z,20.10
2023-05-18T14:25:09.831Z,23.80
2023-05-18T14:27:37.870Z,22.30
2023-05-18T14:30:07.110Z,24.80
2023-05-18T14:32:35.088Z,24.30
2023-05-18T14:35:04.626Z,22.40
2023-05-18T14:37:33.150Z,22.40
2023-05-18T14:40:01.369Z,23.50
2023-05-18T14:42:29.389Z,22.90
2023-05-18T14:44:57.329Z,22.40
2023-05-18T14:47:25.233Z,21.60
2023-05-18T14:49:53.126Z,21.70
2023-05-18T14:52:22.345Z,23.70
2023-05-18T14:54:50.251Z,22.90
2023-05-18T14:57:18.217Z,22.20
2023-05-18T14:59:46.137Z,21.30
2023-05-18T15:02:14.176Z,23.10
2023-05-18T15:04:42.350Z,21.70
2023-05-18T15:07:10.307Z,21.30
2023-05-18T15:09:39.572Z,22.20
2023-05-18T15:12:07.897Z,22.20
2023-05-18T15:14:35.833Z,21.60
2023-05-18T15:17:03.784Z,22.00
2023-05-18T15:19:31.699Z,22.30
2023-05-18T15:21:59.640Z,23.40
2023-05-18T15:24:27.530Z,21.20
2023-05-18T15:26:56.922Z,22.90
2023-05-18T15:29:24.853Z,23.40
2023-05-18T15:31:54.996Z,23.70
2023-05-18T15:34:22.984Z,21.80
2023-05-18T15:36:52.759Z,20.80
2023-05-18T15:39:20.774Z,22.90
2023-05-18T15:41:48.910Z,24.20
2023-05-18T15:44:18.172Z,22.00
2023-05-18T15:46:46.120Z,23.40
2023-05-18T15:49:14.080Z,22.30
2023-05-18T15:51:42.004Z,22.70
2023-05-18T15:54:10.253Z,22.40
2023-05-18T15:56:38.333Z,24.20
2023-05-18T15:59:08.273Z,21.10
2023-05-18T16:01:37.748Z,22.40
2023-05-18T16:04:05.946Z,21.80
2023-05-18T16:06:36.271Z,21.30
2023-05-18T16:09:04.519Z,23.90
2023-05-18T16:11:32.548Z,23.60
2023-05-18T16:14:00.514Z,23.60
2023-05-18T16:16:28.911Z,23.60
2023-05-18T16:19:00.586Z,23.90
2023-05-18T16:21:28.676Z,23.00
2023-05-18T16:23:56.642Z,23.80
2023-05-18T16:26:24.637Z,23.60
2023-05-18T16:28:52.548Z,23.70
2023-05-18T16:31:20.590Z,23.20
2023-05-18T16:33:48.574Z,23.90
2023-05-18T16:36:17.866Z,23.10
2023-05-18T16:38:45.748Z,24.20
2023-05-18T16:41:14.795Z,24.50
2023-05-18T16:43:43.532Z,24.10
2023-05-18T16:46:11.615Z,23.80
2023-05-18T16:48:39.534Z,23.80
2023-05-18T16:51:07.637Z,22.10
2023-05-18T16:53:37.714Z,23.40
2023-05-18T16:56:06.589Z,23.90
2023-05-18T16:58:34.482Z,23.30
2023-05-18T17:01:03.041Z,23.10
2023-05-18T17:03:34.434Z,23.40
2023-05-18T17:06:02.569Z,22.70
2023-05-18T17:08:30.675Z,24.10
2023-05-18T17:10:59.950Z,24.90
2023-05-18T17:13:27.841Z,23.60
2023-05-18T17:16:15.553Z,26.00
2023-05-18T17:18:43.643Z,24.00
2023-05-18T17:21:11.552Z,25.30
2023-05-18T17:23:39.441Z,23.90
2023-05-18T17:26:08.728Z,24.40
2023-05-18T17:28:36.715Z,24.30
2023-05-18T17:31:04.704Z,24.90
2023-05-18T17:33:32.676Z,24.60
2023-05-18T17:36:00.642Z,24.60
2023-05-18T17:38:28.576Z,24.90
2023-05-18T17:40:56.456Z,25.10
2023-05-18T17:43:25.803Z,25.60
2023-05-18T17:45:53.866Z,25.40
2023-05-18T17:48:21.786Z,25.00
2023-05-18T17:50:49.745Z,25.70
2023-05-18T17:53:17.728Z,25.60
2023-05-18T17:55:54.656Z,26.00
2023-05-18T17:58:37.577Z,25.40
2023-05-18T18:01:05.644Z,25.70
2023-05-18T18:03:33.712Z,26.30
2023-05-18T18:06:01.771Z,25.80
2023-05-18T18:08:30.333Z,25.70
2023-05-18T18:10:58.403Z,25.60
2023-05-18T18:13:27.718Z,26.60
2023-05-18T18:15:55.777Z,26.60
2023-05-18T18:18:23.693Z,25.80
2023-05-18T18:20:51.807Z,25.90
2023-05-18T18:23:19.706Z,26.10
2023-05-18T18:25:47.673Z,26.40
2023-05-18T18:28:15.595Z,26.30
2023-05-18T18:30:45.026Z,26.30
2023-05-18T18:33:14.215Z,26.20
2023-05-18T18:35:43.156Z,27.10
2023-05-18T18:38:12.852Z,26.20
2023-05-18T18:40:41.541Z,26.60
2023-05-18T18:43:09.450Z,26.90
2023-05-18T18:45:37.390Z,27.00
2023-05-18T18:48:08.936Z,26.50
2023-05-18T18:50:36.950Z,27.60
2023-05-18T18:53:04.906Z,27.60
2023-05-18T18:55:33.177Z,27.00
2023-05-18T18:58:01.437Z,27.40
2023-05-18T19:00:29.545Z,27.90
2023-05-18T19:02:57.523Z,27.70
2023-05-18T19:05:27.021Z,27.40
2023-05-18T19:07:56.056Z,27.70
2023-05-18T19:10:25.403Z,27.10
2023-05-18T19:12:53.958Z,27.60
2023-05-18T19:15:22.267Z,28.40
2023-05-18T19:17:52.182Z,27.50
2023-05-18T19:20:20.879Z,27.90
2023-05-18T19:22:50.120Z,27.50
2023-05-18T19:25:18.030Z,28.00
2023-05-18T19:27:46.060Z,27.80
2023-05-18T19:30:16.547Z,28.00
2023-05-18T19:32:44.476Z,28.00
2023-05-18T19:35:12.401Z,28.70
2023-05-18T19:37:40.294Z,28.60
2023-05-18T19:40:10.110Z,28.70
2023-05-18T19:42:38.039Z,29.00
2023-05-18T19:45:06.688Z,28.20
2023-05-18T19:47:34.676Z,28.80
2023-05-18T19:50:02.671Z,28.70
2023-05-18T19:52:30.551Z,28.70
2023-05-18T19:54:58.422Z,28.50
2023-05-18T19:57:27.715Z,28.70
2023-05-18T19:59:55.631Z,28.90
2023-05-18T20:02:23.528Z,28.70
2023-05-18T20:04:51.604Z,29.20
2023-05-18T20:07:20.435Z,29.20
2023-05-18T20:09:48.360Z,29.10
2023-05-18T20:12:16.261Z,29.20
2023-05-18T20:14:47.104Z,29.40
2023-05-18T20:17:16.917Z,29.70
2023-05-18T20:19:49.797Z,30.00
2023-05-18T20:22:18.068Z,29.70
2023-05-18T20:24:46.128Z,29.80
2023-05-18T20:27:15.271Z,30.00
2023-05-18T20:29:43.355Z,29.90
2023-05-18T20:32:12.600Z,29.70
2023-05-18T20:34:41.446Z,30.00
2023-05-18T20:37:11.089Z,30.60
2023-05-18T20:39:40.540Z,30.00
2023-05-18T20:42:12.450Z,30.10
2023-05-18T20:44:40.403Z,30.60
2023-05-18T20:47:08.647Z,30.50
2023-05-18T20:49:37.863Z,30.10
2023-05-18T20:52:06.239Z,30.70
2023-05-18T20:54:34.146Z,30.60
2023-05-18T20:57:03.033Z,30.90
2023-05-18T20:59:31.284Z,31.10
2023-05-18T21:01:59.331Z,30.90
2023-05-18T21:04:27.317Z,31.10
2023-05-18T21:06:56.529Z,31.00
2023-05-18T21:09:24.516Z,31.20
2023-05-18T21:11:52.456Z,31.70
2023-05-18T21:14:20.437Z,31.70
2023-05-18T21:16:48.394Z,31.60
2023-05-18T21:19:16.547Z,32.00
2023-05-18T21:21:44.602Z,32.80
2023-05-18T21:24:14.116Z,32.60
2023-05-18T21:26:42.376Z,33.20
2023-05-18T21:29:10.370Z,32.80
2023-05-18T21:31:38.424Z,33.00
2023-05-18T21:34:06.564Z,33.00
2023-05-18T21:36:34.664Z,33.00
2023-05-18T21:39:03.961Z,33.00
2023-05-18T21:41:35.310Z,33.10
2023-05-18T21:44:03.320Z,33.00
2023-05-18T21:46:31.299Z,33.40
2023-05-18T21:48:59.503Z,33.80
2023-05-18T21:51:27.394Z,34.00
2023-05-18T21:53:55.440Z,34.20
2023-05-18T21:56:24.061Z,34.20
2023-05-18T21:58:53.352Z,34.20
2023-05-18T22:01:21.659Z,34.20
2023-05-18T22:03:49.913Z,34.40
2023-05-18T22:06:18.910Z,34.70
2023-05-18T22:08:47.414Z,34.30
2023-05-18T22:11:16.299Z,34.50
2023-05-18T22:13:44.292Z,34.80
2023-05-18T22:16:13.593Z,35.20
2023-05-18T22:18:41.517Z,35.30
2023-05-18T22:21:09.510Z,35.00
2023-05-18T22:23:38.799Z,35.70
2023-05-18T22:26:07.164Z,35.70
2023-05-18T22:28:35.090Z,36.20
2023-05-18T22:31:03.022Z,36.20
2023-05-18T22:33:32.359Z,36.20
2023-05-18T22:36:00.407Z,36.80
2023-05-18T22:38:28.372Z,36.90
2023-05-18T22:40:56.278Z,37.30
2023-05-18T22:43:24.620Z,37.20
2023-05-18T22:45:52.530Z,38.40
2023-05-18T22:48:20.544Z,38.30
2023-05-18T22:50:49.880Z,38.70
2023-05-18T22:53:17.849Z,38.30
2023-05-18T22:55:45.774Z,38.40
2023-05-18T22:58:13.663Z,39.60
2023-05-18T23:00:41.556Z,38.60
2023-05-18T23:03:09.563Z,38.40
2023-05-18T23:05:41.117Z,38.50
2023-05-18T23:08:10.572Z,38.40
2023-05-18T23:10:38.469Z,38.40
2023-05-18T23:13:06.361Z,38.40
2023-05-18T23:15:34.361Z,39.00
2023-05-18T23:18:02.309Z,39.00
2023-05-18T23:20:34.640Z,39.10
2023-05-18T23:23:02.726Z,39.40
2023-05-18T23:25:31.971Z,39.80
2023-05-18T23:27:59.923Z,40.10
2023-05-18T23:32:57.453Z,40.50
2023-05-18T23:35:26.160Z,40.40
2023-05-18T23:37:55.483Z,40.30
2023-05-18T23:40:24.102Z,40.60
2023-05-18T23:42:54.068Z,41.00
2023-05-18T23:45:23.539Z,41.90
2023-05-18T23:47:53.159Z,41.90
2023-05-18T23:50:22.232Z,42.60
2023-05-18T23:52:53.833Z,41.80
2023-05-18T23:55:24.914Z,42.10
2023-05-18T23:57:55.340Z,42.80
